Thunder radar more information blitzortung!


Radar de pluja more information rain snow radar


Visita la nostra xarxa de llocs de meteo:

Template documentation
and downloads

And another site



No particular awareness of the weather is required.    There are no Weather-warnings

Pagina Historial Weather Underground text

Diari Resum Agost 1, 2017 Unitats:  Tant    Imperial   Mètric
« Previous Dia
SegĂźent Dia »
Diari Setmana Mensual Anual Personalitzada
  Maxima: Minima: Media:
Temperatura: 91.4 °F /  33.0 °C 71.4 °F /  21.9 °C 80.4 °F /  26.9 °C
Punt de rosada: 72 °F /  22.2 °C 60.6 °F /  15.9 °C 68.9 °F /  20.5 °C
Humitat: 86 % 38 % 70 %
Wind Speed: 11.5 mph /  18.5 km/h - 3 mph /  4.9 km/h
RĂ fegues de vent: 11.5 mph /  18.5 km/h - -
Vent:- - SE
Pression baro: 30 in /  1016.8 hPa 29.8 in /  1010.0 hPa -
Precipitacions: 0 in /  0.0 mm    
Historical Graphs
 
 
Dades de taula per Agost 1, 2017
Temps Temperatura Punt de rosada Pression baro Vent Wind Speed RĂ fegues de vent Humitat Rainfall Rate (Hourly)
11:01 76.3 °F /  24.6 °C 70 °F /  21.1 °C 29.8 in /  1010.0 hPa ENE 4.6 mph /  7.4 km/h   81 % 0 in /  0.0 mm
11:06 80.2 °F /  26.8 °C 70 °F /  21.1 °C 29.9 in /  1012.8 hPa NNW 2.3 mph /  3.7 km/h 2.3 mph /  3.7 km/h 71 % 0 in /  0.0 mm
11:11 80.8 °F /  27.1 °C 69.6 °F /  20.9 °C 29.9 in /  1012.8 hPa South 3.5 mph /  5.6 km/h 3.5 mph /  5.6 km/h 69 % 0 in /  0.0 mm
11:16 81.3 °F /  27.4 °C 70.2 °F /  21.2 °C 29.9 in /  1012.8 hPa SW 3.5 mph /  5.6 km/h 3.5 mph /  5.6 km/h 69 % 0 in /  0.0 mm
11:21 81.1 °F /  27.3 °C 70 °F /  21.1 °C 29.9 in /  1012.8 hPa SSW 2.3 mph /  3.7 km/h 2.3 mph /  3.7 km/h 69 % 0 in /  0.0 mm
11:26 81.1 °F /  27.3 °C 70 °F /  21.1 °C 29.9 in /  1012.8 hPa WSW 2.3 mph /  3.7 km/h 2.3 mph /  3.7 km/h 69 % 0 in /  0.0 mm
11:31 81 °F /  27.2 °C 69.8 °F /  21.0 °C 29.9 in /  1012.8 hPa SW 4.6 mph /  7.4 km/h 4.6 mph /  7.4 km/h 69 % 0 in /  0.0 mm
11:36 80.8 °F /  27.1 °C 69.6 °F /  20.9 °C 29.9 in /  1013.8 hPa North 2 mph /  3.2 km/h 2 mph /  3.2 km/h 69 % 0 in /  0.0 mm
11:41 80.8 °F /  27.1 °C 69.6 °F /  20.9 °C 29.9 in /  1013.8 hPa SW 2.3 mph /  3.7 km/h 2.3 mph /  3.7 km/h 69 % 0 in /  0.0 mm
11:46 80.8 °F /  27.1 °C 69.6 °F /  20.9 °C 29.9 in /  1013.8 hPa WSW 2.3 mph /  3.7 km/h 2.3 mph /  3.7 km/h 69 % 0 in /  0.0 mm
11:51 80.8 °F /  27.1 °C 69.6 °F /  20.9 °C 29.9 in /  1013.8 hPa SW 3.5 mph /  5.6 km/h 3.5 mph /  5.6 km/h 69 % 0 in /  0.0 mm
11:56 81.1 °F /  27.3 °C 70 °F /  21.1 °C 29.9 in /  1013.8 hPa West 2.3 mph /  3.7 km/h 2.3 mph /  3.7 km/h 69 % 0 in /  0.0 mm
12:01 81.7 °F /  27.6 °C 70.5 °F /  21.4 °C 29.9 in /  1013.8 hPa WSW 2.4 mph /  3.9 km/h 2.4 mph /  3.9 km/h 69 % 0 in /  0.0 mm
12:06 82.2 °F /  27.9 °C 70.5 °F /  21.4 °C 29.9 in /  1013.8 hPa West 1.2 mph /  1.9 km/h   68 % 0 in /  0.0 mm
12:11 82.2 °F /  27.9 °C 70.5 °F /  21.4 °C 29.9 in /  1013.8 hPa West 4.6 mph /  7.4 km/h 4.6 mph /  7.4 km/h 68 % 0 in /  0.0 mm
12:16 82 °F /  27.8 °C 70 °F /  21.1 °C 29.9 in /  1013.8 hPa WSW 2.3 mph /  3.7 km/h 2.3 mph /  3.7 km/h 67 % 0 in /  0.0 mm
12:21 82.2 °F /  27.9 °C 70.2 °F /  21.2 °C 29.9 in /  1013.8 hPa WSW 2.6 mph /  4.2 km/h 2.6 mph /  4.2 km/h 67 % 0 in /  0.0 mm
12:26 82 °F /  27.8 °C 70 °F /  21.1 °C 29.9 in /  1013.8 hPa NE 2.3 mph /  3.7 km/h 2.3 mph /  3.7 km/h 67 % 0 in /  0.0 mm
12:27 82 °F /  27.8 °C 70 °F /  21.1 °C 29.9 in /  1013.8 hPa NE 2.3 mph /  3.7 km/h 2.3 mph /  3.7 km/h 67 % 0 in /  0.0 mm
12:32 81.9 °F /  27.7 °C 69.8 °F /  21.0 °C 29.9 in /  1013.8 hPa ESE 4.6 mph /  7.4 km/h 4.6 mph /  7.4 km/h 67 % 0 in /  0.0 mm
12:37 81 °F /  27.2 °C 69.4 °F /  20.8 °C 29.9 in /  1013.8 hPa ESE 3.5 mph /  5.6 km/h 3.5 mph /  5.6 km/h 68 % 0 in /  0.0 mm
12:42 80.4 °F /  26.9 °C 69.3 °F /  20.7 °C 29.9 in /  1013.8 hPa ENE 3.8 mph /  6.1 km/h 3.8 mph /  6.1 km/h 69 % 0 in /  0.0 mm
12:47 80.6 °F /  27.0 °C 70 °F /  21.1 °C 29.9 in /  1011.7 hPa NNE 2.3 mph /  3.7 km/h 2.3 mph /  3.7 km/h 70 % 0 in /  0.0 mm
12:52 80.6 °F /  27.0 °C 69.4 °F /  20.8 °C 29.9 in /  1011.7 hPa NNE 5.8 mph /  9.3 km/h 5.8 mph /  9.3 km/h 69 % 0 in /  0.0 mm
12:57 80.6 °F /  27.0 °C 69.4 °F /  20.8 °C 29.9 in /  1011.7 hPa North 5.8 mph /  9.3 km/h 5.8 mph /  9.3 km/h 69 % 0 in /  0.0 mm
13:02 80.8 °F /  27.1 °C 69.6 °F /  20.9 °C 29.9 in /  1011.7 hPa NNE 4.6 mph /  7.4 km/h 4.6 mph /  7.4 km/h 69 % 0 in /  0.0 mm
13:07 80.4 °F /  26.9 °C 69.6 °F /  20.9 °C 29.9 in /  1011.7 hPa ENE 3.5 mph /  5.6 km/h 3.5 mph /  5.6 km/h 70 % 0 in /  0.0 mm
13:12 80.4 °F /  26.9 °C 69.6 °F /  20.9 °C 29.9 in /  1011.7 hPa NW 2.3 mph /  3.7 km/h 2.3 mph /  3.7 km/h 70 % 0 in /  0.0 mm
13:17 80.8 °F /  27.1 °C 70.2 °F /  21.2 °C 29.9 in /  1013.8 hPa ENE 2.3 mph /  3.7 km/h 2.3 mph /  3.7 km/h 70 % 0 in /  0.0 mm
13:22 81 °F /  27.2 °C 70.3 °F /  21.3 °C 29.9 in /  1013.8 hPa SW 1.2 mph /  1.9 km/h 1.2 mph /  1.9 km/h 70 % 0 in /  0.0 mm
13:27 81.5 °F /  27.5 °C 70.3 °F /  21.3 °C 29.9 in /  1013.8 hPa South 2.4 mph /  3.9 km/h 2.4 mph /  3.9 km/h 69 % 0 in /  0.0 mm
13:32 82.9 °F /  28.3 °C 71.2 °F /  21.8 °C 29.9 in /  1013.8 hPa SSE 3.5 mph /  5.6 km/h 3.5 mph /  5.6 km/h 68 % 0 in /  0.0 mm
13:37 83.3 °F /  28.5 °C 71.6 °F /  22.0 °C 29.9 in /  1013.8 hPa NNE 3.8 mph /  6.1 km/h 3.8 mph /  6.1 km/h 68 % 0 in /  0.0 mm
13:38 83.1 °F /  28.4 °C 71.1 °F /  21.7 °C 29.9 in /  1013.8 hPa ENE 2.9 mph /  4.7 km/h 2.9 mph /  4.7 km/h 67 % 0 in /  0.0 mm
13:42 82.2 °F /  27.9 °C 70.2 °F /  21.2 °C 29.9 in /  1013.8 hPa East 3.5 mph /  5.6 km/h 3.5 mph /  5.6 km/h 67 % 0 in /  0.0 mm
13:47 82.6 °F /  28.1 °C 70.5 °F /  21.4 °C 29.9 in /  1011.7 hPa ESE 4.6 mph /  7.4 km/h 4.6 mph /  7.4 km/h 67 % 0 in /  0.0 mm
13:52 82.9 °F /  28.3 °C 70 °F /  21.1 °C 29.9 in /  1011.7 hPa East 4.6 mph /  7.4 km/h 4.6 mph /  7.4 km/h 65 % 0 in /  0.0 mm
13:57 83.5 °F /  28.6 °C 70.5 °F /  21.4 °C 29.9 in /  1011.7 hPa ESE 2.3 mph /  3.7 km/h 2.3 mph /  3.7 km/h 65 % 0 in /  0.0 mm
14:02 83.7 °F /  28.7 °C 70.2 °F /  21.2 °C 29.9 in /  1012.8 hPa ESE 4.6 mph /  7.4 km/h 4.6 mph /  7.4 km/h 64 % 0 in /  0.0 mm
14:07 83.7 °F /  28.7 °C 70.2 °F /  21.2 °C 29.9 in /  1012.8 hPa ESE 5.8 mph /  9.3 km/h 5.8 mph /  9.3 km/h 64 % 0 in /  0.0 mm
14:12 84.6 °F /  29.2 °C 70.5 °F /  21.4 °C 29.9 in /  1012.8 hPa NNE 3.5 mph /  5.6 km/h 3.5 mph /  5.6 km/h 63 % 0 in /  0.0 mm
14:17 85.3 °F /  29.6 °C 70.9 °F /  21.6 °C 29.9 in /  1011.7 hPa ENE 2.3 mph /  3.7 km/h 2.3 mph /  3.7 km/h 62 % 0 in /  0.0 mm
14:22 86.4 °F /  30.2 °C 70.9 °F /  21.6 °C 29.9 in /  1011.7 hPa South 1.4 mph /  2.3 km/h 1.4 mph /  2.3 km/h 60 % 0 in /  0.0 mm
14:27 86.4 °F /  30.2 °C 71.2 °F /  21.8 °C 29.9 in /  1011.7 hPa NNE 3.5 mph /  5.6 km/h 3.5 mph /  5.6 km/h 61 % 0 in /  0.0 mm
14:32 86.4 °F /  30.2 °C 70.9 °F /  21.6 °C 29.9 in /  1011.7 hPa East 2.4 mph /  3.9 km/h 2.4 mph /  3.9 km/h 60 % 0 in /  0.0 mm
14:37 86.9 °F /  30.5 °C 70.3 °F /  21.3 °C 29.9 in /  1011.7 hPa NNE 3.5 mph /  5.6 km/h 3.5 mph /  5.6 km/h 58 % 0 in /  0.0 mm
14:42 88.2 °F /  31.2 °C 71.1 °F /  21.7 °C 29.9 in /  1011.7 hPa East 3.5 mph /  5.6 km/h 3.5 mph /  5.6 km/h 57 % 0 in /  0.0 mm
14:47 89.1 °F /  31.7 °C 71.2 °F /  21.8 °C 29.9 in /  1011.7 hPa NNE 6.4 mph /  10.3 km/h 6.4 mph /  10.3 km/h 56 % 0 in /  0.0 mm
14:52 89.8 °F /  32.1 °C 71.4 °F /  21.9 °C 29.9 in /  1011.7 hPa NE 4.6 mph /  7.4 km/h 4.6 mph /  7.4 km/h 55 % 0 in /  0.0 mm
14:57 90.1 °F /  32.3 °C 70.7 °F /  21.5 °C 29.9 in /  1011.7 hPa ENE 8.1 mph /  13.0 km/h 8.1 mph /  13.0 km/h 53 % 0 in /  0.0 mm
15:02 90.1 °F /  32.3 °C 70.7 °F /  21.5 °C 29.9 in /  1011.7 hPa NNW 5.6 mph /  9.0 km/h 5.6 mph /  9.0 km/h 53 % 0 in /  0.0 mm
15:07 90.5 °F /  32.5 °C 68.7 °F /  20.4 °C 29.9 in /  1011.7 hPa WSW 7.6 mph /  12.2 km/h 7.6 mph /  12.2 km/h 49 % 0 in /  0.0 mm
15:12 91 °F /  32.8 °C 67.5 °F /  19.7 °C 29.9 in /  1011.7 hPa SSW 4.6 mph /  7.4 km/h 4.6 mph /  7.4 km/h 46 % 0 in /  0.0 mm
15:17 91.4 °F /  33.0 °C 66.4 °F /  19.1 °C 29.9 in /  1011.7 hPa SSE 5.8 mph /  9.3 km/h 5.8 mph /  9.3 km/h 44 % 0 in /  0.0 mm
15:22 91.2 °F /  32.9 °C 65.7 °F /  18.7 °C 29.9 in /  1011.7 hPa West 4.6 mph /  7.4 km/h 4.6 mph /  7.4 km/h 43 % 0 in /  0.0 mm
15:27 90.9 °F /  32.7 °C 64.6 °F /  18.1 °C 29.9 in /  1011.7 hPa West 10.4 mph /  16.7 km/h 10.4 mph /  16.7 km/h 42 % 0 in /  0.0 mm
15:32 90.1 °F /  32.3 °C 64 °F /  17.8 °C 29.9 in /  1011.7 hPa South 5.8 mph /  9.3 km/h 5.8 mph /  9.3 km/h 42 % 0 in /  0.0 mm
15:37 90 °F /  32.2 °C 64.6 °F /  18.1 °C 29.9 in /  1011.7 hPa WSW 5.8 mph /  9.3 km/h 5.8 mph /  9.3 km/h 43 % 0 in /  0.0 mm
15:42 90.5 °F /  32.5 °C 63 °F /  17.2 °C 29.9 in /  1011.7 hPa WSW 11.5 mph /  18.5 km/h 11.5 mph /  18.5 km/h 40 % 0 in /  0.0 mm
15:47 90.5 °F /  32.5 °C 61.3 °F /  16.3 °C 29.9 in /  1011.7 hPa WNW 8.1 mph /  13.0 km/h 8.1 mph /  13.0 km/h 38 % 0 in /  0.0 mm
15:52 90.3 °F /  32.4 °C 61.3 °F /  16.3 °C 29.9 in /  1011.7 hPa NW 5.8 mph /  9.3 km/h 5.8 mph /  9.3 km/h 38 % 0 in /  0.0 mm
15:57 90 °F /  32.2 °C 61.7 °F /  16.5 °C 29.9 in /  1011.7 hPa West 6.9 mph /  11.1 km/h 6.9 mph /  11.1 km/h 39 % 0 in /  0.0 mm
16:02 89.6 °F /  32.0 °C 60.6 °F /  15.9 °C 29.9 in /  1013.8 hPa WSW 5.4 mph /  8.7 km/h 5.4 mph /  8.7 km/h 38 % 0 in /  0.0 mm
16:07 89.4 °F /  31.9 °C 61.2 °F /  16.2 °C 29.9 in /  1013.8 hPa WNW 5.8 mph /  9.3 km/h 5.8 mph /  9.3 km/h 39 % 0 in /  0.0 mm
16:12 89.2 °F /  31.8 °C 61 °F /  16.1 °C 29.9 in /  1013.8 hPa SW 5.8 mph /  9.3 km/h 5.8 mph /  9.3 km/h 39 % 0 in /  0.0 mm
16:17 89.1 °F /  31.7 °C 61 °F /  16.1 °C 29.9 in /  1012.8 hPa WSW 5.4 mph /  8.7 km/h 5.4 mph /  8.7 km/h 39 % 0 in /  0.0 mm
16:22 88.9 °F /  31.6 °C 62.1 °F /  16.7 °C 29.9 in /  1012.8 hPa WSW 5.8 mph /  9.3 km/h 5.8 mph /  9.3 km/h 41 % 0 in /  0.0 mm
16:27 88.5 °F /  31.4 °C 61.9 °F /  16.6 °C 29.9 in /  1012.8 hPa West 5.8 mph /  9.3 km/h 5.8 mph /  9.3 km/h 41 % 0 in /  0.0 mm
16:32 89.1 °F /  31.7 °C 62.2 °F /  16.8 °C 30 in /  1014.8 hPa SW 6 mph /  9.7 km/h 6 mph /  9.7 km/h 41 % 0 in /  0.0 mm
16:37 89.2 °F /  31.8 °C 63.1 °F /  17.3 °C 30 in /  1014.8 hPa SW 4.6 mph /  7.4 km/h 4.6 mph /  7.4 km/h 42 % 0 in /  0.0 mm
16:42 89.1 °F /  31.7 °C 63.7 °F /  17.6 °C 30 in /  1014.8 hPa West 3.5 mph /  5.6 km/h 3.5 mph /  5.6 km/h 43 % 0 in /  0.0 mm
16:47 88.2 °F /  31.2 °C 64.8 °F /  18.2 °C 30 in /  1014.8 hPa SW 6.9 mph /  11.1 km/h 6.9 mph /  11.1 km/h 46 % 0 in /  0.0 mm
16:52 87.3 °F /  30.7 °C 65.8 °F /  18.8 °C 30 in /  1014.8 hPa WSW 6.9 mph /  11.1 km/h 6.9 mph /  11.1 km/h 49 % 0 in /  0.0 mm
16:57 86.4 °F /  30.2 °C 66 °F /  18.9 °C 30 in /  1014.8 hPa NE 4.6 mph /  7.4 km/h 4.6 mph /  7.4 km/h 51 % 0 in /  0.0 mm
17:02 86 °F /  30.0 °C 66.9 °F /  19.4 °C 29.9 in /  1013.8 hPa West 3.5 mph /  5.6 km/h 3.5 mph /  5.6 km/h 53 % 0 in /  0.0 mm
17:03 86 °F /  30.0 °C 66.9 °F /  19.4 °C 29.9 in /  1013.8 hPa West 4 mph /  6.4 km/h 4 mph /  6.4 km/h 53 % 0 in /  0.0 mm
17:08 85.8 °F /  29.9 °C 67.3 °F /  19.6 °C 29.9 in /  1013.8 hPa ESE 2.3 mph /  3.7 km/h 2.3 mph /  3.7 km/h 54 % 0 in /  0.0 mm
17:13 84.9 °F /  29.4 °C 68.5 °F /  20.3 °C 29.9 in /  1013.8 hPa ESE 4.6 mph /  7.4 km/h 4.6 mph /  7.4 km/h 58 % 0 in /  0.0 mm
17:18 84.2 °F /  29.0 °C 68.4 °F /  20.2 °C 29.9 in /  1013.8 hPa NNE 4.3 mph /  6.9 km/h 4.3 mph /  6.9 km/h 59 % 0 in /  0.0 mm
17:23 83.7 °F /  28.7 °C 68.7 °F /  20.4 °C 29.9 in /  1013.8 hPa East 4.6 mph /  7.4 km/h 4.6 mph /  7.4 km/h 61 % 0 in /  0.0 mm
17:28 82.8 °F /  28.2 °C 69.3 °F /  20.7 °C 29.9 in /  1013.8 hPa ENE 4.6 mph /  7.4 km/h 4.6 mph /  7.4 km/h 64 % 0 in /  0.0 mm
17:33 82.2 °F /  27.9 °C 68.7 °F /  20.4 °C 29.9 in /  1013.8 hPa NE 4.6 mph /  7.4 km/h 4.6 mph /  7.4 km/h 64 % 0 in /  0.0 mm
17:38 81.9 °F /  27.7 °C 68.9 °F /  20.5 °C 29.9 in /  1013.8 hPa ENE 4.6 mph /  7.4 km/h 4.6 mph /  7.4 km/h 65 % 0 in /  0.0 mm
17:43 81.5 °F /  27.5 °C 69.1 °F /  20.6 °C 29.9 in /  1013.8 hPa NE 5.6 mph /  9.0 km/h 5.6 mph /  9.0 km/h 66 % 0 in /  0.0 mm
17:48 81.1 °F /  27.3 °C 69.1 °F /  20.6 °C 29.9 in /  1013.8 hPa SE 4 mph /  6.4 km/h 4 mph /  6.4 km/h 67 % 0 in /  0.0 mm
17:53 80.8 °F /  27.1 °C 69.3 °F /  20.7 °C 29.9 in /  1013.8 hPa NNE 4.6 mph /  7.4 km/h 4.6 mph /  7.4 km/h 68 % 0 in /  0.0 mm
17:58 80.4 °F /  26.9 °C 69.3 °F /  20.7 °C 29.9 in /  1013.8 hPa NE 2.3 mph /  3.7 km/h 2.3 mph /  3.7 km/h 69 % 0 in /  0.0 mm
18:03 80.2 °F /  26.8 °C 69.6 °F /  20.9 °C 29.9 in /  1013.8 hPa ENE 4.6 mph /  7.4 km/h 4.6 mph /  7.4 km/h 70 % 0 in /  0.0 mm
18:08 80.2 °F /  26.8 °C 70 °F /  21.1 °C 29.9 in /  1013.8 hPa NNE 4.6 mph /  7.4 km/h 4.6 mph /  7.4 km/h 71 % 0 in /  0.0 mm
18:13 80.1 °F /  26.7 °C 69.8 °F /  21.0 °C 29.9 in /  1013.8 hPa ENE 3.5 mph /  5.6 km/h 3.5 mph /  5.6 km/h 71 % 0 in /  0.0 mm
18:18 80.1 °F /  26.7 °C 69.8 °F /  21.0 °C 29.9 in /  1013.8 hPa East 3.5 mph /  5.6 km/h 3.5 mph /  5.6 km/h 71 % 0 in /  0.0 mm
18:23 80.2 °F /  26.8 °C 70 °F /  21.1 °C 29.9 in /  1013.8 hPa NNE 5.8 mph /  9.3 km/h 5.8 mph /  9.3 km/h 71 % 0 in /  0.0 mm
18:28 80.2 °F /  26.8 °C 70 °F /  21.1 °C 29.9 in /  1013.8 hPa East 4.9 mph /  7.9 km/h 4.9 mph /  7.9 km/h 71 % 0 in /  0.0 mm
18:33 80.2 °F /  26.8 °C 70 °F /  21.1 °C 29.9 in /  1012.8 hPa North 3.6 mph /  5.8 km/h 3.6 mph /  5.8 km/h 71 % 0 in /  0.0 mm
18:38 80.2 °F /  26.8 °C 70.3 °F /  21.3 °C 29.9 in /  1012.8 hPa NNE 4.6 mph /  7.4 km/h 4.6 mph /  7.4 km/h 72 % 0 in /  0.0 mm
18:43 80.2 °F /  26.8 °C 71.2 °F /  21.8 °C 29.9 in /  1012.8 hPa East 3.8 mph /  6.1 km/h 3.8 mph /  6.1 km/h 74 % 0 in /  0.0 mm
18:48 79.9 °F /  26.6 °C 70.9 °F /  21.6 °C 29.9 in /  1011.7 hPa ENE 4.6 mph /  7.4 km/h 4.6 mph /  7.4 km/h 74 % 0 in /  0.0 mm
18:53 79.7 °F /  26.5 °C 70.7 °F /  21.5 °C 29.9 in /  1011.7 hPa North 2.3 mph /  3.7 km/h 2.3 mph /  3.7 km/h 74 % 0 in /  0.0 mm
18:58 79.7 °F /  26.5 °C 71.4 °F /  21.9 °C 29.9 in /  1011.7 hPa SE 5.8 mph /  9.3 km/h 5.8 mph /  9.3 km/h 76 % 0 in /  0.0 mm
19:03 79.9 °F /  26.6 °C 71.6 °F /  22.0 °C 29.9 in /  1012.8 hPa East 3.5 mph /  5.6 km/h 3.5 mph /  5.6 km/h 76 % 0 in /  0.0 mm
19:08 79.7 °F /  26.5 °C 71.8 °F /  22.1 °C 29.9 in /  1012.8 hPa ESE 3.5 mph /  5.6 km/h 3.5 mph /  5.6 km/h 77 % 0 in /  0.0 mm
19:13 79.7 °F /  26.5 °C 71.8 °F /  22.1 °C 29.9 in /  1012.8 hPa East 3.5 mph /  5.6 km/h 3.5 mph /  5.6 km/h 77 % 0 in /  0.0 mm
19:15 74.8 °F /  23.8 °C 69.6 °F /  20.9 °C 30 in /  1016.8 hPa SW 1 mph /  1.6 km/h 1 mph /  1.6 km/h 84 % 0 in /  0.0 mm
19:18 79.5 °F /  26.4 °C 71.2 °F /  21.8 °C 29.9 in /  1011.7 hPa ENE 6.9 mph /  11.1 km/h 6.9 mph /  11.1 km/h 76 % 0 in /  0.0 mm
19:23 79.2 °F /  26.2 °C 71.2 °F /  21.8 °C 29.9 in /  1011.7 hPa NNE 5.8 mph /  9.3 km/h 5.8 mph /  9.3 km/h 77 % 0 in /  0.0 mm
19:25 74.8 °F /  23.8 °C 70 °F /  21.1 °C 30 in /  1016.8 hPa Calm   1 mph /  1.6 km/h 85 % 0 in /  0.0 mm
19:28 79.2 °F /  26.2 °C 71.2 °F /  21.8 °C 29.9 in /  1011.7 hPa NNE 4.6 mph /  7.4 km/h 4.6 mph /  7.4 km/h 77 % 0 in /  0.0 mm
19:33 79.3 °F /  26.3 °C 72 °F /  22.2 °C 29.9 in /  1011.7 hPa ENE 6.9 mph /  11.1 km/h 6.9 mph /  11.1 km/h 78 % 0 in /  0.0 mm
19:35 74.7 °F /  23.7 °C 69.8 °F /  21.0 °C 30 in /  1016.8 hPa Calm     85 % 0 in /  0.0 mm
19:38 79.3 °F /  26.3 °C 72 °F /  22.2 °C 29.9 in /  1011.7 hPa NNE 5.8 mph /  9.3 km/h 5.8 mph /  9.3 km/h 78 % 0 in /  0.0 mm
19:43 79.3 °F /  26.3 °C 72 °F /  22.2 °C 29.9 in /  1011.7 hPa ENE 3.5 mph /  5.6 km/h 3.5 mph /  5.6 km/h 78 % 0 in /  0.0 mm
19:45 74.1 °F /  23.4 °C 69.3 °F /  20.7 °C 30 in /  1016.8 hPa Calm   1 mph /  1.6 km/h 85 % 0 in /  0.0 mm
19:48 79.3 °F /  26.3 °C 71.4 °F /  21.9 °C 29.9 in /  1011.7 hPa ESE 5.4 mph /  8.7 km/h 5.4 mph /  8.7 km/h 77 % 0 in /  0.0 mm
19:53 79.3 °F /  26.3 °C 71.4 °F /  21.9 °C 29.9 in /  1011.7 hPa ENE 5.4 mph /  8.7 km/h 5.4 mph /  8.7 km/h 77 % 0 in /  0.0 mm
19:55 74.1 °F /  23.4 °C 69.3 °F /  20.7 °C 30 in /  1016.8 hPa SW 2 mph /  3.2 km/h 2 mph /  3.2 km/h 85 % 0 in /  0.0 mm
19:58 79.5 °F /  26.4 °C 71.8 °F /  22.1 °C 29.9 in /  1011.7 hPa North 3.5 mph /  5.6 km/h 3.5 mph /  5.6 km/h 77 % 0 in /  0.0 mm
20:03 79.5 °F /  26.4 °C 71.2 °F /  21.8 °C 29.9 in /  1011.7 hPa ENE 4.6 mph /  7.4 km/h 4.6 mph /  7.4 km/h 76 % 0 in /  0.0 mm
20:05 74.3 °F /  23.5 °C 69.8 °F /  21.0 °C 30 in /  1015.8 hPa Calm     86 % 0 in /  0.0 mm
20:08 79.5 °F /  26.4 °C 71.2 °F /  21.8 °C 29.9 in /  1011.7 hPa North 5.8 mph /  9.3 km/h 5.8 mph /  9.3 km/h 76 % 0 in /  0.0 mm
20:13 79.5 °F /  26.4 °C 71.2 °F /  21.8 °C 29.9 in /  1011.7 hPa NNE 3.8 mph /  6.1 km/h 3.8 mph /  6.1 km/h 76 % 0 in /  0.0 mm
20:15 74.1 °F /  23.4 °C 69.6 °F /  20.9 °C 30 in /  1015.8 hPa Calm     86 % 0 in /  0.0 mm
20:18 79.5 °F /  26.4 °C 71.2 °F /  21.8 °C 29.9 in /  1011.7 hPa ENE 3.5 mph /  5.6 km/h 3.5 mph /  5.6 km/h 76 % 0 in /  0.0 mm
20:23 79.5 °F /  26.4 °C 71.2 °F /  21.8 °C 29.9 in /  1011.7 hPa NNE 3.5 mph /  5.6 km/h 3.5 mph /  5.6 km/h 76 % 0 in /  0.0 mm
20:25 74.3 °F /  23.5 °C 69.8 °F /  21.0 °C 30 in /  1015.8 hPa NNW 1 mph /  1.6 km/h 2 mph /  3.2 km/h 86 % 0 in /  0.0 mm
20:28 79.5 °F /  26.4 °C 71.2 °F /  21.8 °C 29.9 in /  1011.7 hPa NE 2.3 mph /  3.7 km/h 2.3 mph /  3.7 km/h 76 % 0 in /  0.0 mm
20:33 79.5 °F /  26.4 °C 71.2 °F /  21.8 °C 29.9 in /  1012.8 hPa NE 3.5 mph /  5.6 km/h 3.5 mph /  5.6 km/h 76 % 0 in /  0.0 mm
20:35 73.8 °F /  23.2 °C 69.3 °F /  20.7 °C 30 in /  1015.8 hPa NNE 1 mph /  1.6 km/h 3 mph /  4.8 km/h 86 % 0 in /  0.0 mm
20:38 79.5 °F /  26.4 °C 71.2 °F /  21.8 °C 29.9 in /  1012.8 hPa NNE 3.5 mph /  5.6 km/h 3.5 mph /  5.6 km/h 76 % 0 in /  0.0 mm
20:43 79.3 °F /  26.3 °C 71.1 °F /  21.7 °C 29.9 in /  1012.8 hPa NNE 4.6 mph /  7.4 km/h 4.6 mph /  7.4 km/h 76 % 0 in /  0.0 mm
20:45 73.4 °F /  23.0 °C 69.1 °F /  20.6 °C 30 in /  1015.8 hPa Calm     86 % 0 in /  0.0 mm
20:48 79.3 °F /  26.3 °C 71.1 °F /  21.7 °C 29.9 in /  1013.8 hPa NNE 2.3 mph /  3.7 km/h 2.3 mph /  3.7 km/h 76 % 0 in /  0.0 mm
20:53 79.2 °F /  26.2 °C 70.9 °F /  21.6 °C 29.9 in /  1013.8 hPa NNE 2.3 mph /  3.7 km/h 2.3 mph /  3.7 km/h 76 % 0 in /  0.0 mm
20:55 73 °F /  22.8 °C 68.5 °F /  20.3 °C 30 in /  1014.8 hPa Calm   1 mph /  1.6 km/h 86 % 0 in /  0.0 mm
20:58 79.2 °F /  26.2 °C 70.9 °F /  21.6 °C 29.9 in /  1013.8 hPa Calm     76 % 0 in /  0.0 mm
21:03 79.2 °F /  26.2 °C 70.9 °F /  21.6 °C 29.9 in /  1013.8 hPa Calm     76 % 0 in /  0.0 mm
21:05 72.7 °F /  22.6 °C 67.8 °F /  19.9 °C 30 in /  1015.8 hPa Calm   1 mph /  1.6 km/h 85 % 0 in /  0.0 mm
21:08 78.8 °F /  26.0 °C 71.1 °F /  21.7 °C 29.9 in /  1013.8 hPa NE 1.2 mph /  1.9 km/h 1.2 mph /  1.9 km/h 77 % 0 in /  0.0 mm
21:13 78.8 °F /  26.0 °C 71.1 °F /  21.7 °C 29.9 in /  1013.8 hPa Calm     77 % 0 in /  0.0 mm
21:15 72.9 °F /  22.7 °C 68.2 °F /  20.1 °C 30 in /  1015.8 hPa Calm     85 % 0 in /  0.0 mm
21:18 78.8 °F /  26.0 °C 71.1 °F /  21.7 °C 29.9 in /  1013.8 hPa Calm     77 % 0 in /  0.0 mm
21:23 78.6 °F /  25.9 °C 70.9 °F /  21.6 °C 29.9 in /  1013.8 hPa ESE 2.3 mph /  3.7 km/h 2.3 mph /  3.7 km/h 77 % 0 in /  0.0 mm
21:25 72.5 °F /  22.5 °C 67.6 °F /  19.8 °C 30 in /  1015.8 hPa SSW 1 mph /  1.6 km/h 2 mph /  3.2 km/h 85 % 0 in /  0.0 mm
21:28 78.6 °F /  25.9 °C 71.2 °F /  21.8 °C 29.9 in /  1013.8 hPa East 2.6 mph /  4.2 km/h 2.6 mph /  4.2 km/h 78 % 0 in /  0.0 mm
21:33 78.6 °F /  25.9 °C 71.2 °F /  21.8 °C 29.9 in /  1013.8 hPa ESE 2.9 mph /  4.7 km/h 2.9 mph /  4.7 km/h 78 % 0 in /  0.0 mm
21:35 72.7 °F /  22.6 °C 67.3 °F /  19.6 °C 30 in /  1015.8 hPa NNE 2 mph /  3.2 km/h 2 mph /  3.2 km/h 83 % 0 in /  0.0 mm
21:38 78.4 °F /  25.8 °C 71.1 °F /  21.7 °C 29.9 in /  1013.8 hPa ENE 1.2 mph /  1.9 km/h 1.2 mph /  1.9 km/h 78 % 0 in /  0.0 mm
21:43 78.1 °F /  25.6 °C 70.7 °F /  21.5 °C 29.9 in /  1013.8 hPa NE 1.2 mph /  1.9 km/h   78 % 0 in /  0.0 mm
21:45 72.9 °F /  22.7 °C 66.4 °F /  19.1 °C 30 in /  1015.8 hPa North 2 mph /  3.2 km/h 5 mph /  8.0 km/h 80 % 0 in /  0.0 mm
21:48 78.1 °F /  25.6 °C 70.7 °F /  21.5 °C 29.9 in /  1013.8 hPa ENE 1.4 mph /  2.3 km/h 1.4 mph /  2.3 km/h 78 % 0 in /  0.0 mm
21:53 77.9 °F /  25.5 °C 70.5 °F /  21.4 °C 29.9 in /  1013.8 hPa NE 2.3 mph /  3.7 km/h 2.3 mph /  3.7 km/h 78 % 0 in /  0.0 mm
21:55 73 °F /  22.8 °C 65.5 °F /  18.6 °C 30 in /  1015.8 hPa NNE 3 mph /  4.8 km/h 6 mph /  9.7 km/h 77 % 0 in /  0.0 mm
21:58 77.9 °F /  25.5 °C 70.5 °F /  21.4 °C 29.9 in /  1013.8 hPa NNE 1.4 mph /  2.3 km/h 1.4 mph /  2.3 km/h 78 % 0 in /  0.0 mm
22:03 77.7 °F /  25.4 °C 70.3 °F /  21.3 °C 30 in /  1014.8 hPa SSW 1.2 mph /  1.9 km/h 1.2 mph /  1.9 km/h 78 % 0 in /  0.0 mm
22:05 73.2 °F /  22.9 °C 64.8 °F /  18.2 °C 30 in /  1015.8 hPa NNE 2 mph /  3.2 km/h 7 mph /  11.3 km/h 75 % 0 in /  0.0 mm
22:07 77.5 °F /  25.3 °C 70.2 °F /  21.2 °C 30 in /  1014.8 hPa Calm     78 % 0 in /  0.0 mm
22:08 77.5 °F /  25.3 °C 70.2 °F /  21.2 °C 30 in /  1014.8 hPa Calm     78 % 0 in /  0.0 mm
22:09 77.5 °F /  25.3 °C 70.2 °F /  21.2 °C 30 in /  1014.8 hPa Calm     78 % 0 in /  0.0 mm
22:12 77.5 °F /  25.3 °C 70.2 °F /  21.2 °C 30 in /  1014.8 hPa Calm     78 % 0 in /  0.0 mm
22:15 73.4 °F /  23.0 °C 64.2 °F /  17.9 °C 30 in /  1015.8 hPa North 2 mph /  3.2 km/h 6 mph /  9.7 km/h 73 % 0 in /  0.0 mm
22:17 77.4 °F /  25.2 °C 70.3 °F /  21.3 °C 30 in /  1014.8 hPa Calm     79 % 0 in /  0.0 mm
22:18 77.4 °F /  25.2 °C 70.3 °F /  21.3 °C 30 in /  1014.8 hPa Calm     79 % 0 in /  0.0 mm
22:22 77.2 °F /  25.1 °C 70.2 °F /  21.2 °C 30 in /  1014.8 hPa Calm     79 % 0 in /  0.0 mm
22:25 73.4 °F /  23.0 °C 64.2 °F /  17.9 °C 30 in /  1015.8 hPa NNW 2 mph /  3.2 km/h 5 mph /  8.0 km/h 73 % 0 in /  0.0 mm
22:27 77.2 °F /  25.1 °C 70.2 °F /  21.2 °C 30 in /  1014.8 hPa ENE 1.2 mph /  1.9 km/h 1.2 mph /  1.9 km/h 79 % 0 in /  0.0 mm
22:32 77 °F /  25.0 °C 70 °F /  21.1 °C 30 in /  1015.8 hPa Calm     79 % 0 in /  0.0 mm
22:35 73.2 °F /  22.9 °C 63.7 °F /  17.6 °C 30 in /  1015.8 hPa NNW 2 mph /  3.2 km/h 4 mph /  6.4 km/h 72 % 0 in /  0.0 mm
22:37 77 °F /  25.0 °C 70 °F /  21.1 °C 30 in /  1015.8 hPa NE 2.3 mph /  3.7 km/h 2.3 mph /  3.7 km/h 79 % 0 in /  0.0 mm
22:42 76.8 °F /  24.9 °C 70.5 °F /  21.4 °C 30 in /  1015.8 hPa NE 2.2 mph /  3.5 km/h 2.2 mph /  3.5 km/h 81 % 0 in /  0.0 mm
22:45 72.5 °F /  22.5 °C 63.7 °F /  17.6 °C 30 in /  1015.8 hPa Calm   2 mph /  3.2 km/h 74 % 0 in /  0.0 mm
22:47 76.6 °F /  24.8 °C 70.3 °F /  21.3 °C 30 in /  1015.8 hPa NE 3.5 mph /  5.6 km/h 3.5 mph /  5.6 km/h 81 % 0 in /  0.0 mm
22:52 76.5 °F /  24.7 °C 70.2 °F /  21.2 °C 30 in /  1015.8 hPa NE 2.9 mph /  4.7 km/h 2.9 mph /  4.7 km/h 81 % 0 in /  0.0 mm
22:55 72.3 °F /  22.4 °C 63.7 °F /  17.6 °C 30 in /  1015.8 hPa Calm   3 mph /  4.8 km/h 74 % 0 in /  0.0 mm
22:57 76.3 °F /  24.6 °C 70.3 °F /  21.3 °C 30 in /  1015.8 hPa NE 1.2 mph /  1.9 km/h 1.2 mph /  1.9 km/h 82 % 0 in /  0.0 mm
23:02 76.1 °F /  24.5 °C 70.2 °F /  21.2 °C 30 in /  1015.8 hPa NE 2.3 mph /  3.7 km/h 2.3 mph /  3.7 km/h 82 % 0 in /  0.0 mm
23:05 72 °F /  22.2 °C 63.7 °F /  17.6 °C 30 in /  1014.8 hPa Calm   2 mph /  3.2 km/h 75 % 0 in /  0.0 mm
23:07 76.1 °F /  24.5 °C 70.2 °F /  21.2 °C 30 in /  1015.8 hPa East 1.2 mph /  1.9 km/h 1.2 mph /  1.9 km/h 82 % 0 in /  0.0 mm
23:12 76.1 °F /  24.5 °C 70.2 °F /  21.2 °C 30 in /  1015.8 hPa NNE 2.3 mph /  3.7 km/h 2.3 mph /  3.7 km/h 82 % 0 in /  0.0 mm
23:15 71.8 °F /  22.1 °C 64.2 °F /  17.9 °C 30 in /  1014.8 hPa Calm   2 mph /  3.2 km/h 77 % 0 in /  0.0 mm
23:17 75.9 °F /  24.4 °C 70 °F /  21.1 °C 30 in /  1016.8 hPa North 2.3 mph /  3.7 km/h 2.3 mph /  3.7 km/h 82 % 0 in /  0.0 mm
23:22 75.9 °F /  24.4 °C 70 °F /  21.1 °C 30 in /  1016.8 hPa NW 1.2 mph /  1.9 km/h   82 % 0 in /  0.0 mm
23:25 71.8 °F /  22.1 °C 64.9 °F /  18.3 °C 30 in /  1015.8 hPa Calm     79 % 0 in /  0.0 mm
23:27 75.7 °F /  24.3 °C 70.2 °F /  21.2 °C 30 in /  1016.8 hPa NW 1.2 mph /  1.9 km/h   83 % 0 in /  0.0 mm
23:32 75.6 °F /  24.2 °C 70 °F /  21.1 °C 30 in /  1016.8 hPa SW 1.6 mph /  2.6 km/h 1.6 mph /  2.6 km/h 83 % 0 in /  0.0 mm
23:35 71.8 °F /  22.1 °C 65.7 °F /  18.7 °C 30 in /  1015.8 hPa Calm     81 % 0 in /  0.0 mm
23:37 75.2 °F /  24.0 °C 69.6 °F /  20.9 °C 30 in /  1016.8 hPa SW 1.2 mph /  1.9 km/h 1.2 mph /  1.9 km/h 83 % 0 in /  0.0 mm
23:42 75.2 °F /  24.0 °C 69.6 °F /  20.9 °C 30 in /  1016.8 hPa Calm     83 % 0 in /  0.0 mm
23:45 71.6 °F /  22.0 °C 65.8 °F /  18.8 °C 30 in /  1015.8 hPa Calm   2 mph /  3.2 km/h 82 % 0 in /  0.0 mm
23:47 75.4 °F /  24.1 °C 70 °F /  21.1 °C 30 in /  1016.8 hPa Calm     83 % 0 in /  0.0 mm
23:52 75.2 °F /  24.0 °C 70 °F /  21.1 °C 30 in /  1016.8 hPa Calm     84 % 0 in /  0.0 mm
23:55 71.4 °F /  21.9 °C 65.7 °F /  18.7 °C 30 in /  1015.8 hPa Calm   1 mph /  1.6 km/h 82 % 0 in /  0.0 mm
23:57 75.2 °F /  24.0 °C 70 °F /  21.1 °C 30 in /  1016.8 hPa Calm     84 % 0 in /  0.0 mm
Meteo Sesrovires
Elogis d' Weather Underground - 3.5 mb

Guio original per  Jim McMurry - jmcmurry@mwt.net Adaptat per a la plantilla per  Wim van der Kuil - Leuven-Template.eu

Trobareu la nostra informacio del temps tambe a:

Weather Underground

AWEKAS